sensor_id;sensor_type;location;lat;lon;timestamp;P1;durP1;ratioP1;P2;durP2;ratioP2
77978;SDS011;67169;50.268;8.694;2024-03-22T00:00:26;12.07;;;6.38;;
77978;SDS011;67169;50.268;8.694;2024-03-22T00:02:53;13.98;;;6.43;;
77978;SDS011;67169;50.268;8.694;2024-03-22T00:05:18;11.55;;;6.32;;
77978;SDS011;67169;50.268;8.694;2024-03-22T00:07:46;9.63;;;4.45;;
77978;SDS011;67169;50.268;8.694;2024-03-22T00:10:12;10.95;;;5.78;;
77978;SDS011;67169;50.268;8.694;2024-03-22T00:12:38;9.90;;;4.60;;
77978;SDS011;67169;50.268;8.694;2024-03-22T00:15:04;11.93;;;6.10;;
77978;SDS011;67169;50.268;8.694;2024-03-22T00:17:33;9.57;;;5.38;;
77978;SDS011;67169;50.268;8.694;2024-03-22T00:19:59;9.85;;;4.70;;
77978;SDS011;67169;50.268;8.694;2024-03-22T00:22:26;11.60;;;4.85;;
77978;SDS011;67169;50.268;8.694;2024-03-22T00:24:52;10.43;;;5.53;;
77978;SDS011;67169;50.268;8.694;2024-03-22T00:27:18;10.25;;;5.75;;
77978;SDS011;67169;50.268;8.694;2024-03-22T00:29:43;11.80;;;6.13;;
77978;SDS011;67169;50.268;8.694;2024-03-22T00:32:10;11.68;;;5.57;;
77978;SDS011;67169;50.268;8.694;2024-03-22T00:34:37;10.70;;;5.30;;
77978;SDS011;67169;50.268;8.694;2024-03-22T00:37:03;11.43;;;6.55;;
77978;SDS011;67169;50.268;8.694;2024-03-22T00:39:29;11.32;;;7.05;;
77978;SDS011;67169;50.268;8.694;2024-03-22T00:41:55;11.18;;;5.47;;
77978;SDS011;67169;50.268;8.694;2024-03-22T00:44:21;11.15;;;6.40;;
77978;SDS011;67169;50.268;8.694;2024-03-22T00:46:47;12.25;;;5.95;;
77978;SDS011;67169;50.268;8.694;2024-03-22T00:49:13;13.02;;;5.85;;
77978;SDS011;67169;50.268;8.694;2024-03-22T00:51:41;13.30;;;5.30;;
77978;SDS011;67169;50.268;8.694;2024-03-22T00:54:08;14.13;;;5.93;;
77978;SDS011;67169;50.268;8.694;2024-03-22T00:56:35;12.88;;;6.05;;
77978;SDS011;67169;50.268;8.694;2024-03-22T00:59:00;12.48;;;6.43;;
77978;SDS011;67169;50.268;8.694;2024-03-22T01:01:27;11.40;;;5.82;;
77978;SDS011;67169;50.268;8.694;2024-03-22T01:03:53;12.18;;;5.85;;
77978;SDS011;67169;50.268;8.694;2024-03-22T01:06:19;12.57;;;5.85;;
77978;SDS011;67169;50.268;8.694;2024-03-22T01:08:51;11.75;;;5.55;;
77978;SDS011;67169;50.268;8.694;2024-03-22T01:13:43;11.43;;;5.57;;
77978;SDS011;67169;50.268;8.694;2024-03-22T01:16:09;13.35;;;6.47;;
77978;SDS011;67169;50.268;8.694;2024-03-22T01:18:35;10.30;;;5.57;;
77978;SDS011;67169;50.268;8.694;2024-03-22T01:21:01;9.98;;;6.30;;
77978;SDS011;67169;50.268;8.694;2024-03-22T01:23:27;11.00;;;5.38;;
77978;SDS011;67169;50.268;8.694;2024-03-22T01:25:55;12.70;;;5.22;;
77978;SDS011;67169;50.268;8.694;2024-03-22T01:28:20;12.30;;;6.13;;
77978;SDS011;67169;50.268;8.694;2024-03-22T01:30:47;13.32;;;5.22;;
77978;SDS011;67169;50.268;8.694;2024-03-22T01:33:12;11.65;;;6.00;;
77978;SDS011;67169;50.268;8.694;2024-03-22T01:35:39;16.63;;;6.78;;
77978;SDS011;67169;50.268;8.694;2024-03-22T01:38:04;17.00;;;6.55;;
77978;SDS011;67169;50.268;8.694;2024-03-22T01:40:31;14.00;;;6.13;;
77978;SDS011;67169;50.268;8.694;2024-03-22T01:42:58;13.85;;;6.00;;
77978;SDS011;67169;50.268;8.694;2024-03-22T01:45:27;14.35;;;6.03;;
77978;SDS011;67169;50.268;8.694;2024-03-22T01:47:57;14.88;;;6.57;;
77978;SDS011;67169;50.268;8.694;2024-03-22T01:50:24;11.35;;;6.32;;
77978;SDS011;67169;50.268;8.694;2024-03-22T01:52:50;13.48;;;6.15;;
77978;SDS011;67169;50.268;8.694;2024-03-22T01:55:17;11.45;;;5.45;;
77978;SDS011;67169;50.268;8.694;2024-03-22T01:57:43;11.43;;;5.75;;
77978;SDS011;67169;50.268;8.694;2024-03-22T02:00:11;14.93;;;6.25;;
77978;SDS011;67169;50.268;8.694;2024-03-22T02:02:37;17.50;;;6.40;;
77978;SDS011;67169;50.268;8.694;2024-03-22T02:05:11;15.38;;;7.20;;
77978;SDS011;67169;50.268;8.694;2024-03-22T02:07:37;16.73;;;7.63;;
77978;SDS011;67169;50.268;8.694;2024-03-22T02:10:03;12.10;;;6.30;;
77978;SDS011;67169;50.268;8.694;2024-03-22T02:12:30;12.57;;;6.68;;
77978;SDS011;67169;50.268;8.694;2024-03-22T02:14:57;14.10;;;5.70;;
77978;SDS011;67169;50.268;8.694;2024-03-22T02:17:24;13.55;;;6.22;;
77978;SDS011;67169;50.268;8.694;2024-03-22T02:19:51;14.23;;;6.95;;
77978;SDS011;67169;50.268;8.694;2024-03-22T02:22:16;11.70;;;5.10;;
77978;SDS011;67169;50.268;8.694;2024-03-22T02:24:44;12.55;;;5.10;;
77978;SDS011;67169;50.268;8.694;2024-03-22T02:27:09;17.77;;;6.03;;
77978;SDS011;67169;50.268;8.694;2024-03-22T02:29:36;7.35;;;5.07;;
77978;SDS011;67169;50.268;8.694;2024-03-22T02:32:02;11.95;;;5.65;;
77978;SDS011;67169;50.268;8.694;2024-03-22T02:34:29;12.52;;;6.45;;
77978;SDS011;67169;50.268;8.694;2024-03-22T02:36:54;11.98;;;5.90;;
77978;SDS011;67169;50.268;8.694;2024-03-22T02:39:21;13.27;;;6.03;;
77978;SDS011;67169;50.268;8.694;2024-03-22T02:41:48;12.18;;;5.13;;
77978;SDS011;67169;50.268;8.694;2024-03-22T02:44:14;14.50;;;5.47;;
77978;SDS011;67169;50.268;8.694;2024-03-22T02:46:40;11.93;;;6.18;;
77978;SDS011;67169;50.268;8.694;2024-03-22T02:49:06;14.93;;;6.63;;
77978;SDS011;67169;50.268;8.694;2024-03-22T02:51:32;12.50;;;5.50;;
77978;SDS011;67169;50.268;8.694;2024-03-22T02:53:58;16.60;;;6.78;;
77978;SDS011;67169;50.268;8.694;2024-03-22T02:56:24;13.82;;;5.78;;
77978;SDS011;67169;50.268;8.694;2024-03-22T02:58:51;16.02;;;6.30;;
77978;SDS011;67169;50.268;8.694;2024-03-22T03:01:17;13.85;;;6.63;;
77978;SDS011;67169;50.268;8.694;2024-03-22T03:03:43;13.90;;;7.40;;
77978;SDS011;67169;50.268;8.694;2024-03-22T03:06:09;15.48;;;6.97;;
77978;SDS011;67169;50.268;8.694;2024-03-22T03:08:38;14.27;;;6.53;;
77978;SDS011;67169;50.268;8.694;2024-03-22T03:11:03;11.30;;;5.65;;
77978;SDS011;67169;50.268;8.694;2024-03-22T03:13:30;13.27;;;6.10;;
77978;SDS011;67169;50.268;8.694;2024-03-22T03:15:57;12.63;;;6.13;;
77978;SDS011;67169;50.268;8.694;2024-03-22T03:18:24;12.40;;;6.15;;
77978;SDS011;67169;50.268;8.694;2024-03-22T03:20:49;16.58;;;7.45;;
77978;SDS011;67169;50.268;8.694;2024-03-22T03:23:16;17.58;;;7.07;;
77978;SDS011;67169;50.268;8.694;2024-03-22T03:25:41;16.00;;;7.03;;
77978;SDS011;67169;50.268;8.694;2024-03-22T03:28:08;10.63;;;5.70;;
77978;SDS011;67169;50.268;8.694;2024-03-22T03:30:33;13.80;;;6.38;;
77978;SDS011;67169;50.268;8.694;2024-03-22T03:33:01;17.48;;;7.30;;
77978;SDS011;67169;50.268;8.694;2024-03-22T03:35:27;13.50;;;7.15;;
77978;SDS011;67169;50.268;8.694;2024-03-22T03:37:54;15.00;;;7.22;;
77978;SDS011;67169;50.268;8.694;2024-03-22T03:40:19;12.38;;;6.78;;
77978;SDS011;67169;50.268;8.694;2024-03-22T03:42:46;14.25;;;6.90;;
77978;SDS011;67169;50.268;8.694;2024-03-22T03:45:12;16.92;;;7.13;;
77978;SDS011;67169;50.268;8.694;2024-03-22T03:47:39;15.32;;;7.15;;
77978;SDS011;67169;50.268;8.694;2024-03-22T03:50:07;13.10;;;6.15;;
77978;SDS011;67169;50.268;8.694;2024-03-22T03:52:34;15.90;;;7.05;;
77978;SDS011;67169;50.268;8.694;2024-03-22T03:54:59;17.17;;;7.10;;
77978;SDS011;67169;50.268;8.694;2024-03-22T03:57:25;18.15;;;7.00;;
77978;SDS011;67169;50.268;8.694;2024-03-22T03:59:51;15.23;;;6.13;;
77978;SDS011;67169;50.268;8.694;2024-03-22T04:02:17;14.82;;;6.88;;
77978;SDS011;67169;50.268;8.694;2024-03-22T04:04:43;12.38;;;6.68;;
77978;SDS011;67169;50.268;8.694;2024-03-22T04:07:11;15.95;;;6.70;;
77978;SDS011;67169;50.268;8.694;2024-03-22T04:09:36;15.23;;;7.55;;
77978;SDS011;67169;50.268;8.694;2024-03-22T04:12:03;19.38;;;5.55;;
77978;SDS011;67169;50.268;8.694;2024-03-22T04:14:29;13.85;;;7.13;;
77978;SDS011;67169;50.268;8.694;2024-03-22T04:16:55;14.68;;;6.82;;
77978;SDS011;67169;50.268;8.694;2024-03-22T04:19:21;14.52;;;7.20;;
77978;SDS011;67169;50.268;8.694;2024-03-22T04:21:47;14.07;;;6.20;;
77978;SDS011;67169;50.268;8.694;2024-03-22T04:24:15;14.27;;;6.07;;
77978;SDS011;67169;50.268;8.694;2024-03-22T04:26:42;12.88;;;7.32;;
77978;SDS011;67169;50.268;8.694;2024-03-22T04:29:07;11.90;;;5.47;;
77978;SDS011;67169;50.268;8.694;2024-03-22T04:31:34;15.85;;;7.15;;
77978;SDS011;67169;50.268;8.694;2024-03-22T04:33:59;12.70;;;5.95;;
77978;SDS011;67169;50.268;8.694;2024-03-22T04:36:26;12.13;;;5.90;;
77978;SDS011;67169;50.268;8.694;2024-03-22T04:38:51;13.50;;;5.85;;
77978;SDS011;67169;50.268;8.694;2024-03-22T04:41:19;12.13;;;5.53;;
77978;SDS011;67169;50.268;8.694;2024-03-22T04:43:45;14.52;;;5.82;;
77978;SDS011;67169;50.268;8.694;2024-03-22T04:46:12;14.00;;;5.55;;
77978;SDS011;67169;50.268;8.694;2024-03-22T04:48:38;14.35;;;6.57;;
77978;SDS011;67169;50.268;8.694;2024-03-22T04:51:04;15.13;;;6.00;;
77978;SDS011;67169;50.268;8.694;2024-03-22T04:53:31;13.57;;;6.07;;
77978;SDS011;67169;50.268;8.694;2024-03-22T04:55:56;13.63;;;7.18;;
77978;SDS011;67169;50.268;8.694;2024-03-22T04:58:24;19.65;;;7.57;;
77978;SDS011;67169;50.268;8.694;2024-03-22T05:00:55;16.17;;;7.07;;
77978;SDS011;67169;50.268;8.694;2024-03-22T05:03:22;14.15;;;7.40;;
77978;SDS011;67169;50.268;8.694;2024-03-22T05:05:49;19.65;;;8.20;;
77978;SDS011;67169;50.268;8.694;2024-03-22T05:08:16;19.90;;;7.72;;
77978;SDS011;67169;50.268;8.694;2024-03-22T05:10:42;20.73;;;8.45;;
77978;SDS011;67169;50.268;8.694;2024-03-22T05:13:08;19.23;;;7.70;;
77978;SDS011;67169;50.268;8.694;2024-03-22T05:15:35;12.93;;;7.40;;
77978;SDS011;67169;50.268;8.694;2024-03-22T05:18:02;21.55;;;8.45;;
77978;SDS011;67169;50.268;8.694;2024-03-22T05:20:28;14.77;;;7.28;;
77978;SDS011;67169;50.268;8.694;2024-03-22T05:22:55;15.85;;;7.53;;
77978;SDS011;67169;50.268;8.694;2024-03-22T05:25:20;16.80;;;8.40;;
77978;SDS011;67169;50.268;8.694;2024-03-22T05:27:47;15.48;;;8.18;;
77978;SDS011;67169;50.268;8.694;2024-03-22T05:30:13;16.85;;;8.82;;
77978;SDS011;67169;50.268;8.694;2024-03-22T05:32:41;17.27;;;8.10;;
77978;SDS011;67169;50.268;8.694;2024-03-22T05:35:07;16.92;;;7.88;;
77978;SDS011;67169;50.268;8.694;2024-03-22T05:37:33;25.88;;;9.75;;
77978;SDS011;67169;50.268;8.694;2024-03-22T05:39:59;17.13;;;8.93;;
77978;SDS011;67169;50.268;8.694;2024-03-22T05:42:26;14.93;;;8.38;;
77978;SDS011;67169;50.268;8.694;2024-03-22T05:44:52;14.52;;;7.38;;
77978;SDS011;67169;50.268;8.694;2024-03-22T05:47:19;14.60;;;7.00;;
77978;SDS011;67169;50.268;8.694;2024-03-22T05:49:47;17.80;;;9.55;;
77978;SDS011;67169;50.268;8.694;2024-03-22T05:52:13;20.13;;;8.50;;
77978;SDS011;67169;50.268;8.694;2024-03-22T05:54:40;16.77;;;7.88;;
77978;SDS011;67169;50.268;8.694;2024-03-22T05:57:05;21.38;;;8.00;;
77978;SDS011;67169;50.268;8.694;2024-03-22T05:59:33;20.27;;;10.23;;
77978;SDS011;67169;50.268;8.694;2024-03-22T06:01:59;18.80;;;8.10;;
77978;SDS011;67169;50.268;8.694;2024-03-22T06:04:26;18.98;;;9.15;;
77978;SDS011;67169;50.268;8.694;2024-03-22T06:06:53;13.43;;;6.47;;
77978;SDS011;67169;50.268;8.694;2024-03-22T06:11:49;15.68;;;6.10;;
77978;SDS011;67169;50.268;8.694;2024-03-22T06:14:15;20.02;;;9.25;;
77978;SDS011;67169;50.268;8.694;2024-03-22T06:16:42;25.65;;;8.88;;
77978;SDS011;67169;50.268;8.694;2024-03-22T06:19:08;21.73;;;9.65;;
77978;SDS011;67169;50.268;8.694;2024-03-22T06:21:34;15.23;;;8.77;;
77978;SDS011;67169;50.268;8.694;2024-03-22T06:24:02;18.13;;;8.40;;
77978;SDS011;67169;50.268;8.694;2024-03-22T06:26:28;20.48;;;9.10;;
77978;SDS011;67169;50.268;8.694;2024-03-22T06:28:55;19.90;;;8.52;;
77978;SDS011;67169;50.268;8.694;2024-03-22T06:31:20;16.05;;;8.32;;
77978;SDS011;67169;50.268;8.694;2024-03-22T06:33:47;18.90;;;7.80;;
77978;SDS011;67169;50.268;8.694;2024-03-22T06:36:12;18.85;;;8.07;;
77978;SDS011;67169;50.268;8.694;2024-03-22T06:38:41;20.40;;;7.60;;
77978;SDS011;67169;50.268;8.694;2024-03-22T06:41:08;16.20;;;7.70;;
77978;SDS011;67169;50.268;8.694;2024-03-22T06:43:34;15.90;;;8.05;;
77978;SDS011;67169;50.268;8.694;2024-03-22T06:46:00;18.08;;;7.90;;
77978;SDS011;67169;50.268;8.694;2024-03-22T06:48:27;16.40;;;8.60;;
77978;SDS011;67169;50.268;8.694;2024-03-22T06:50:52;18.95;;;8.75;;
77978;SDS011;67169;50.268;8.694;2024-03-22T06:53:19;17.98;;;8.10;;
77978;SDS011;67169;50.268;8.694;2024-03-22T06:55:45;13.30;;;8.05;;
77978;SDS011;67169;50.268;8.694;2024-03-22T06:58:12;19.05;;;8.50;;
77978;SDS011;67169;50.268;8.694;2024-03-22T07:00:38;13.13;;;7.45;;
77978;SDS011;67169;50.268;8.694;2024-03-22T07:03:05;14.90;;;7.90;;
77978;SDS011;67169;50.268;8.694;2024-03-22T07:05:30;14.98;;;7.97;;
77978;SDS011;67169;50.268;8.694;2024-03-22T07:07:56;15.35;;;6.20;;
77978;SDS011;67169;50.268;8.694;2024-03-22T07:10:22;18.33;;;8.95;;
77978;SDS011;67169;50.268;8.694;2024-03-22T07:12:52;15.13;;;7.68;;
77978;SDS011;67169;50.268;8.694;2024-03-22T07:15:20;18.77;;;9.30;;
77978;SDS011;67169;50.268;8.694;2024-03-22T07:17:47;19.52;;;9.55;;
77978;SDS011;67169;50.268;8.694;2024-03-22T07:20:12;19.67;;;9.45;;
77978;SDS011;67169;50.268;8.694;2024-03-22T07:22:38;16.65;;;7.38;;
77978;SDS011;67169;50.268;8.694;2024-03-22T07:25:04;18.90;;;8.77;;
77978;SDS011;67169;50.268;8.694;2024-03-22T07:27:31;20.92;;;9.43;;
77978;SDS011;67169;50.268;8.694;2024-03-22T07:29:56;15.85;;;9.05;;
77978;SDS011;67169;50.268;8.694;2024-03-22T07:32:24;16.50;;;7.93;;
77978;SDS011;67169;50.268;8.694;2024-03-22T07:34:50;16.92;;;7.15;;
77978;SDS011;67169;50.268;8.694;2024-03-22T07:37:16;18.02;;;9.68;;
77978;SDS011;67169;50.268;8.694;2024-03-22T07:39:41;16.58;;;6.88;;
77978;SDS011;67169;50.268;8.694;2024-03-22T07:42:08;17.40;;;8.43;;
77978;SDS011;67169;50.268;8.694;2024-03-22T07:44:34;13.77;;;7.97;;
77978;SDS011;67169;50.268;8.694;2024-03-22T07:47:00;14.25;;;7.47;;
77978;SDS011;67169;50.268;8.694;2024-03-22T07:49:27;14.45;;;8.50;;
77978;SDS011;67169;50.268;8.694;2024-03-22T07:54:19;11.80;;;7.13;;
77978;SDS011;67169;50.268;8.694;2024-03-22T07:56:45;14.63;;;7.72;;
77978;SDS011;67169;50.268;8.694;2024-03-22T07:59:11;16.05;;;7.40;;
77978;SDS011;67169;50.268;8.694;2024-03-22T08:01:37;11.63;;;6.30;;
77978;SDS011;67169;50.268;8.694;2024-03-22T08:04:03;9.90;;;7.18;;
77978;SDS011;67169;50.268;8.694;2024-03-22T08:06:31;12.95;;;5.75;;
77978;SDS011;67169;50.268;8.694;2024-03-22T08:08:57;14.65;;;8.13;;
77978;SDS011;67169;50.268;8.694;2024-03-22T08:11:23;17.92;;;9.00;;
77978;SDS011;67169;50.268;8.694;2024-03-22T08:13:48;14.38;;;7.20;;
77978;SDS011;67169;50.268;8.694;2024-03-22T08:16:15;18.65;;;8.40;;
77978;SDS011;67169;50.268;8.694;2024-03-22T08:18:41;17.92;;;8.38;;
77978;SDS011;67169;50.268;8.694;2024-03-22T08:21:07;14.32;;;7.47;;
77978;SDS011;67169;50.268;8.694;2024-03-22T08:23:34;13.15;;;8.15;;
77978;SDS011;67169;50.268;8.694;2024-03-22T08:28:26;14.65;;;6.85;;
77978;SDS011;67169;50.268;8.694;2024-03-22T08:30:52;17.30;;;7.50;;
77978;SDS011;67169;50.268;8.694;2024-03-22T08:33:18;15.32;;;6.45;;
77978;SDS011;67169;50.268;8.694;2024-03-22T08:35:44;11.93;;;7.18;;
77978;SDS011;67169;50.268;8.694;2024-03-22T08:38:10;12.85;;;7.30;;
77978;SDS011;67169;50.268;8.694;2024-03-22T08:40:41;15.18;;;6.97;;
77978;SDS011;67169;50.268;8.694;2024-03-22T08:43:06;12.18;;;6.40;;
77978;SDS011;67169;50.268;8.694;2024-03-22T08:45:33;10.48;;;6.13;;
77978;SDS011;67169;50.268;8.694;2024-03-22T08:47:58;15.02;;;6.75;;
77978;SDS011;67169;50.268;8.694;2024-03-22T08:50:25;13.07;;;6.45;;
77978;SDS011;67169;50.268;8.694;2024-03-22T08:52:51;11.07;;;5.78;;
77978;SDS011;67169;50.268;8.694;2024-03-22T08:55:17;8.55;;;5.13;;
77978;SDS011;67169;50.268;8.694;2024-03-22T08:57:44;12.77;;;6.30;;
77978;SDS011;67169;50.268;8.694;2024-03-22T09:00:11;10.93;;;5.18;;
77978;SDS011;67169;50.268;8.694;2024-03-22T09:02:37;9.18;;;5.30;;
77978;SDS011;67169;50.268;8.694;2024-03-22T09:05:04;10.23;;;5.82;;
77978;SDS011;67169;50.268;8.694;2024-03-22T09:07:30;12.18;;;6.47;;
77978;SDS011;67169;50.268;8.694;2024-03-22T09:09:56;11.10;;;6.20;;
77978;SDS011;67169;50.268;8.694;2024-03-22T09:12:22;12.75;;;6.10;;
77978;SDS011;67169;50.268;8.694;2024-03-22T09:14:50;11.20;;;3.97;;
77978;SDS011;67169;50.268;8.694;2024-03-22T09:17:15;11.80;;;5.18;;
77978;SDS011;67169;50.268;8.694;2024-03-22T09:19:42;7.43;;;4.47;;
77978;SDS011;67169;50.268;8.694;2024-03-22T09:22:08;10.50;;;4.70;;
77978;SDS011;67169;50.268;8.694;2024-03-22T09:24:34;13.07;;;5.22;;
77978;SDS011;67169;50.268;8.694;2024-03-22T09:26:59;10.23;;;5.90;;
77978;SDS011;67169;50.268;8.694;2024-03-22T09:29:26;8.02;;;4.85;;
77978;SDS011;67169;50.268;8.694;2024-03-22T09:31:53;11.50;;;5.18;;
77978;SDS011;67169;50.268;8.694;2024-03-22T09:36:45;4.00;;;3.38;;
77978;SDS011;67169;50.268;8.694;2024-03-22T09:39:11;8.80;;;3.60;;
77978;SDS011;67169;50.268;8.694;2024-03-22T09:41:39;10.45;;;5.15;;
77978;SDS011;67169;50.268;8.694;2024-03-22T09:44:10;12.38;;;5.85;;
77978;SDS011;67169;50.268;8.694;2024-03-22T09:46:38;5.60;;;4.80;;
77978;SDS011;67169;50.268;8.694;2024-03-22T09:49:07;8.43;;;4.40;;
77978;SDS011;67169;50.268;8.694;2024-03-22T09:51:35;7.30;;;4.10;;
77978;SDS011;67169;50.268;8.694;2024-03-22T09:54:03;5.22;;;3.33;;
77978;SDS011;67169;50.268;8.694;2024-03-22T09:56:28;7.60;;;4.43;;
77978;SDS011;67169;50.268;8.694;2024-03-22T09:58:57;11.55;;;4.95;;
77978;SDS011;67169;50.268;8.694;2024-03-22T10:01:23;6.35;;;4.50;;
77978;SDS011;67169;50.268;8.694;2024-03-22T10:03:50;4.47;;;3.50;;
77978;SDS011;67169;50.268;8.694;2024-03-22T10:06:17;5.97;;;4.25;;
77978;SDS011;67169;50.268;8.694;2024-03-22T10:08:44;7.00;;;3.97;;
77978;SDS011;67169;50.268;8.694;2024-03-22T10:11:09;5.30;;;3.85;;
77978;SDS011;67169;50.268;8.694;2024-03-22T10:13:36;5.78;;;4.05;;
77978;SDS011;67169;50.268;8.694;2024-03-22T10:16:02;6.57;;;3.88;;
77978;SDS011;67169;50.268;8.694;2024-03-22T10:18:28;5.72;;;3.17;;
77978;SDS011;67169;50.268;8.694;2024-03-22T10:21:00;5.38;;;3.45;;
77978;SDS011;67169;50.268;8.694;2024-03-22T10:23:29;8.57;;;4.45;;
77978;SDS011;67169;50.268;8.694;2024-03-22T10:25:55;7.07;;;3.58;;
77978;SDS011;67169;50.268;8.694;2024-03-22T10:28:22;6.55;;;3.13;;
77978;SDS011;67169;50.268;8.694;2024-03-22T10:30:49;6.25;;;2.42;;
77978;SDS011;67169;50.268;8.694;2024-03-22T10:33:17;3.45;;;2.40;;
77978;SDS011;67169;50.268;8.694;2024-03-22T10:35:43;6.65;;;3.03;;
77978;SDS011;67169;50.268;8.694;2024-03-22T10:38:11;5.50;;;2.92;;
77978;SDS011;67169;50.268;8.694;2024-03-22T10:40:39;4.80;;;3.25;;
77978;SDS011;67169;50.268;8.694;2024-03-22T10:43:09;5.85;;;3.17;;
77978;SDS011;67169;50.268;8.694;2024-03-22T10:45:35;4.38;;;3.28;;
77978;SDS011;67169;50.268;8.694;2024-03-22T10:48:04;5.40;;;3.35;;
77978;SDS011;67169;50.268;8.694;2024-03-22T10:50:34;9.75;;;3.58;;
77978;SDS011;67169;50.268;8.694;2024-03-22T10:53:06;3.90;;;3.13;;
77978;SDS011;67169;50.268;8.694;2024-03-22T10:55:34;5.95;;;4.07;;
77978;SDS011;67169;50.268;8.694;2024-03-22T10:58:05;6.50;;;3.80;;
77978;SDS011;67169;50.268;8.694;2024-03-22T11:00:31;3.75;;;2.78;;
77978;SDS011;67169;50.268;8.694;2024-03-22T11:02:58;4.53;;;2.22;;
77978;SDS011;67169;50.268;8.694;2024-03-22T11:05:25;6.38;;;3.10;;
77978;SDS011;67169;50.268;8.694;2024-03-22T11:07:58;9.70;;;4.93;;
77978;SDS011;67169;50.268;8.694;2024-03-22T11:10:25;6.78;;;3.25;;
77978;SDS011;67169;50.268;8.694;2024-03-22T11:12:55;6.82;;;3.85;;
77978;SDS011;67169;50.268;8.694;2024-03-22T11:15:21;6.28;;;3.55;;
77978;SDS011;67169;50.268;8.694;2024-03-22T11:17:48;5.10;;;3.38;;
77978;SDS011;67169;50.268;8.694;2024-03-22T11:20:14;3.58;;;3.13;;
77978;SDS011;67169;50.268;8.694;2024-03-22T11:22:41;4.10;;;2.47;;
77978;SDS011;67169;50.268;8.694;2024-03-22T11:25:06;6.70;;;4.30;;
77978;SDS011;67169;50.268;8.694;2024-03-22T11:27:34;8.27;;;4.60;;
77978;SDS011;67169;50.268;8.694;2024-03-22T11:29:59;5.68;;;3.90;;
77978;SDS011;67169;50.268;8.694;2024-03-22T11:32:27;5.47;;;3.53;;
77978;SDS011;67169;50.268;8.694;2024-03-22T11:34:54;4.18;;;3.08;;
77978;SDS011;67169;50.268;8.694;2024-03-22T11:37:20;6.75;;;4.68;;
77978;SDS011;67169;50.268;8.694;2024-03-22T11:39:46;3.95;;;3.30;;
77978;SDS011;67169;50.268;8.694;2024-03-22T11:42:13;7.50;;;4.00;;
77978;SDS011;67169;50.268;8.694;2024-03-22T11:44:39;6.60;;;3.67;;
77978;SDS011;67169;50.268;8.694;2024-03-22T11:47:07;5.13;;;3.50;;
77978;SDS011;67169;50.268;8.694;2024-03-22T11:49:34;4.20;;;3.08;;
77978;SDS011;67169;50.268;8.694;2024-03-22T11:52:02;7.85;;;3.67;;
77978;SDS011;67169;50.268;8.694;2024-03-22T11:54:27;5.78;;;3.75;;
77978;SDS011;67169;50.268;8.694;2024-03-22T11:56:55;8.00;;;4.22;;
77978;SDS011;67169;50.268;8.694;2024-03-22T11:59:20;5.82;;;3.33;;
77978;SDS011;67169;50.268;8.694;2024-03-22T12:01:47;6.95;;;4.57;;
77978;SDS011;67169;50.268;8.694;2024-03-22T12:04:13;4.88;;;3.40;;
77978;SDS011;67169;50.268;8.694;2024-03-22T12:06:42;11.65;;;5.18;;
77978;SDS011;67169;50.268;8.694;2024-03-22T12:09:08;5.00;;;3.35;;
77978;SDS011;67169;50.268;8.694;2024-03-22T12:11:36;6.05;;;3.58;;
77978;SDS011;67169;50.268;8.694;2024-03-22T12:14:01;2.40;;;2.20;;
77978;SDS011;67169;50.268;8.694;2024-03-22T12:16:28;5.25;;;3.80;;
77978;SDS011;67169;50.268;8.694;2024-03-22T12:18:53;8.25;;;4.57;;
77978;SDS011;67169;50.268;8.694;2024-03-22T12:21:20;8.80;;;4.15;;
77978;SDS011;67169;50.268;8.694;2024-03-22T12:23:47;4.97;;;3.55;;
77978;SDS011;67169;50.268;8.694;2024-03-22T12:26:13;8.02;;;4.82;;
77978;SDS011;67169;50.268;8.694;2024-03-22T12:28:39;5.80;;;3.85;;
77978;SDS011;67169;50.268;8.694;2024-03-22T12:31:07;6.07;;;4.32;;
77978;SDS011;67169;50.268;8.694;2024-03-22T12:33:34;4.50;;;3.58;;
77978;SDS011;67169;50.268;8.694;2024-03-22T12:36:00;9.05;;;3.92;;
77978;SDS011;67169;50.268;8.694;2024-03-22T12:38:26;8.10;;;4.15;;
77978;SDS011;67169;50.268;8.694;2024-03-22T12:40:54;6.78;;;4.45;;
77978;SDS011;67169;50.268;8.694;2024-03-22T12:43:19;5.90;;;4.07;;
77978;SDS011;67169;50.268;8.694;2024-03-22T12:45:46;7.75;;;3.83;;
77978;SDS011;67169;50.268;8.694;2024-03-22T12:48:11;9.80;;;3.83;;
77978;SDS011;67169;50.268;8.694;2024-03-22T12:50:38;14.30;;;4.00;;
77978;SDS011;67169;50.268;8.694;2024-03-22T12:53:04;11.38;;;4.65;;
77978;SDS011;67169;50.268;8.694;2024-03-22T12:55:30;5.72;;;3.53;;
77978;SDS011;67169;50.268;8.694;2024-03-22T12:57:57;8.68;;;3.85;;
77978;SDS011;67169;50.268;8.694;2024-03-22T13:00:24;10.13;;;4.45;;
77978;SDS011;67169;50.268;8.694;2024-03-22T13:02:50;6.50;;;4.88;;
77978;SDS011;67169;50.268;8.694;2024-03-22T13:05:17;10.32;;;5.45;;
77978;SDS011;67169;50.268;8.694;2024-03-22T13:07:42;5.38;;;3.65;;
77978;SDS011;67169;50.268;8.694;2024-03-22T13:10:09;7.53;;;4.88;;
77978;SDS011;67169;50.268;8.694;2024-03-22T13:12:35;6.20;;;3.90;;
77978;SDS011;67169;50.268;8.694;2024-03-22T13:15:03;8.85;;;5.55;;
77978;SDS011;67169;50.268;8.694;2024-03-22T13:17:29;7.88;;;4.25;;
77978;SDS011;67169;50.268;8.694;2024-03-22T13:19:55;8.75;;;4.97;;
77978;SDS011;67169;50.268;8.694;2024-03-22T13:22:21;14.02;;;4.78;;
77978;SDS011;67169;50.268;8.694;2024-03-22T13:24:48;6.10;;;3.42;;
77978;SDS011;67169;50.268;8.694;2024-03-22T13:27:15;8.20;;;4.10;;
77978;SDS011;67169;50.268;8.694;2024-03-22T13:29:42;13.05;;;6.35;;
77978;SDS011;67169;50.268;8.694;2024-03-22T13:32:09;13.32;;;5.55;;
77978;SDS011;67169;50.268;8.694;2024-03-22T13:34:35;7.60;;;4.50;;
77978;SDS011;67169;50.268;8.694;2024-03-22T13:37:01;6.38;;;4.60;;
77978;SDS011;67169;50.268;8.694;2024-03-22T13:39:28;8.18;;;4.65;;
77978;SDS011;67169;50.268;8.694;2024-03-22T13:41:54;7.30;;;3.80;;
77978;SDS011;67169;50.268;8.694;2024-03-22T13:44:21;5.55;;;3.67;;
77978;SDS011;67169;50.268;8.694;2024-03-22T13:46:46;8.38;;;3.83;;
77978;SDS011;67169;50.268;8.694;2024-03-22T13:49:17;10.25;;;4.82;;
77978;SDS011;67169;50.268;8.694;2024-03-22T13:51:46;4.95;;;2.80;;
77978;SDS011;67169;50.268;8.694;2024-03-22T13:56:38;5.10;;;3.85;;
77978;SDS011;67169;50.268;8.694;2024-03-22T13:59:05;6.47;;;3.35;;
77978;SDS011;67169;50.268;8.694;2024-03-22T14:01:30;6.38;;;3.30;;
77978;SDS011;67169;50.268;8.694;2024-03-22T14:03:57;5.93;;;3.55;;
77978;SDS011;67169;50.268;8.694;2024-03-22T14:06:24;6.28;;;4.10;;
77978;SDS011;67169;50.268;8.694;2024-03-22T14:08:50;4.05;;;2.60;;
77978;SDS011;67169;50.268;8.694;2024-03-22T14:11:19;3.83;;;2.00;;
77978;SDS011;67169;50.268;8.694;2024-03-22T14:13:45;2.35;;;1.98;;
77978;SDS011;67169;50.268;8.694;2024-03-22T14:16:11;4.00;;;2.00;;
77978;SDS011;67169;50.268;8.694;2024-03-22T14:18:37;3.45;;;2.00;;
77978;SDS011;67169;50.268;8.694;2024-03-22T14:21:03;5.05;;;2.15;;
77978;SDS011;67169;50.268;8.694;2024-03-22T14:23:31;3.63;;;2.33;;
77978;SDS011;67169;50.268;8.694;2024-03-22T14:25:56;4.65;;;2.00;;
77978;SDS011;67169;50.268;8.694;2024-03-22T14:28:23;3.83;;;2.13;;
77978;SDS011;67169;50.268;8.694;2024-03-22T14:30:48;3.45;;;1.98;;
77978;SDS011;67169;50.268;8.694;2024-03-22T14:33:15;4.07;;;2.42;;
77978;SDS011;67169;50.268;8.694;2024-03-22T14:35:41;4.57;;;2.67;;
77978;SDS011;67169;50.268;8.694;2024-03-22T14:38:08;4.10;;;1.88;;
77978;SDS011;67169;50.268;8.694;2024-03-22T14:40:35;2.05;;;1.75;;
77978;SDS011;67169;50.268;8.694;2024-03-22T14:43:03;4.07;;;2.28;;
77978;SDS011;67169;50.268;8.694;2024-03-22T14:45:29;3.13;;;1.90;;
77978;SDS011;67169;50.268;8.694;2024-03-22T14:47:56;4.10;;;1.98;;